Time;durP1;ratioP1;P1;durP2;ratioP2;P2;SDS_P1;SDS_P2;PMS_P1;PMS_P2;Temp;Humidity;BMP_temperature;BMP_pressure;BME280_temperature;BME280_humidity;BME280_pressure;Samples;Min_cycle;Max_cycle;Signal;HPM_P1;HPM_P2
2021/05/29 00:01:04;;;;;;;5.72;4.53;;;;;;;7.77;80.25;102262.38;5016871;28;20503;-46
2021/05/29 00:03:29;;;;;;;7.38;4.30;;;;;;;7.83;79.11;102267.78;5017555;28;20072;-45
2021/05/29 00:05:55;;;;;;;6.22;4.03;;;;;;;7.83;78.79;102259.75;5004131;28;20561;-45
2021/05/29 00:08:21;;;;;;;5.43;3.83;;;;;;;7.85;78.22;102265.72;5013899;28;20104;-46
2021/05/29 00:10:50;;;;;;;6.85;4.30;;;;;;;7.87;78.04;102263.69;5016308;28;20025;-46
2021/05/29 00:13:18;;;;;;;6.35;4.60;;;;;;;7.89;77.82;102267.00;5017636;28;20038;-46
2021/05/29 00:15:43;;;;;;;6.13;4.32;;;;;;;7.87;77.84;102258.34;5012157;28;20101;-45
2021/05/29 00:18:09;;;;;;;6.20;4.30;;;;;;;7.88;77.66;102264.50;5015323;28;20431;-45
2021/05/29 00:20:39;;;;;;;9.85;4.93;;;;;;;7.88;77.49;102261.84;5016605;28;20022;-46
2021/05/29 00:23:07;;;;;;;8.23;4.85;;;;;;;7.84;77.76;102258.75;5015306;28;20033;-46
2021/05/29 00:25:34;;;;;;;8.48;5.07;;;;;;;7.74;78.27;102257.44;5016827;28;20030;-45
2021/05/29 00:27:59;;;;;;;7.70;4.32;;;;;;;7.58;79.01;102259.34;5001846;28;20041;-46
2021/05/29 00:30:25;;;;;;;6.78;4.22;;;;;;;7.44;79.38;102254.91;5020139;28;20094;-46
2021/05/29 00:32:50;;;;;;;6.07;4.25;;;;;;;7.36;79.12;102254.19;5015025;28;20383;-45
2021/05/29 00:35:16;;;;;;;7.97;4.13;;;;;;;7.23;81.02;102250.41;5016314;28;20109;-46
2021/05/29 00:37:41;;;;;;;8.40;4.55;;;;;;;7.16;81.43;102248.66;5011499;28;20029;-46
2021/05/29 00:40:08;;;;;;;8.15;5.00;;;;;;;7.13;81.21;102252.53;5017346;28;20469;-46
2021/05/29 00:42:34;;;;;;;7.20;4.20;;;;;;;7.10;80.88;102254.75;5013904;28;20038;-45
2021/05/29 00:45:00;;;;;;;6.32;4.03;;;;;;;7.00;81.15;102255.03;5016354;28;20037;-45
2021/05/29 00:47:27;;;;;;;8.13;4.95;;;;;;;6.93;81.29;102243.50;5017625;28;20025;-45
2021/05/29 00:49:55;;;;;;;6.68;4.00;;;;;;;6.84;81.51;102240.13;5013447;28;20033;-45
2021/05/29 00:52:22;;;;;;;7.72;5.03;;;;;;;6.81;80.96;102245.78;5013991;28;20110;-45
2021/05/29 00:54:49;;;;;;;6.85;3.47;;;;;;;6.71;81.33;102245.28;5012842;28;20037;-45
2021/05/29 00:57:15;;;;;;;6.88;4.22;;;;;;;6.63;81.48;102243.53;5017390;28;20079;-46
2021/05/29 00:59:41;;;;;;;5.50;4.07;;;;;;;6.65;81.08;102241.53;4997756;28;20108;-46
2021/05/29 01:02:08;;;;;;;7.03;4.38;;;;;;;6.55;82.41;102240.16;5015234;28;20021;-47
2021/05/29 01:04:34;;;;;;;6.05;3.90;;;;;;;6.51;83.03;102234.38;5014430;28;20079;-45
2021/05/29 01:07:01;;;;;;;6.50;4.35;;;;;;;6.53;82.97;102236.84;5014440;28;20364;-47
2021/05/29 01:09:27;;;;;;;8.27;4.65;;;;;;;6.54;82.75;102238.50;5013547;28;20026;-47
2021/05/29 01:11:53;;;;;;;7.15;4.50;;;;;;;6.58;82.41;102240.59;5019951;28;20071;-46
2021/05/29 01:14:19;;;;;;;7.50;4.20;;;;;;;6.59;82.57;102242.25;5023356;28;20079;-45
2021/05/29 01:16:58;;;;;;;5.45;3.25;;;;;;;6.59;82.36;102244.91;5003952;28;20514;-46
2021/05/29 01:19:24;;;;;;;5.90;3.80;;;;;;;6.65;82.32;102240.69;5016732;28;20022;-46
2021/05/29 01:21:50;;;;;;;6.55;4.10;;;;;;;6.69;82.13;102241.97;5015899;28;20391;-46
2021/05/29 01:24:19;;;;;;;6.75;4.40;;;;;;;6.73;81.82;102237.91;5022653;28;20056;-45
2021/05/29 01:26:46;;;;;;;6.35;3.28;;;;;;;6.80;81.69;102245.97;5013554;28;21361;-46
2021/05/29 01:29:12;;;;;;;9.77;3.80;;;;;;;6.79;82.33;102245.16;5015804;28;20030;-46
2021/05/29 01:31:38;;;;;;;6.65;4.20;;;;;;;6.86;81.94;102243.41;5012928;28;20089;-46
2021/05/29 01:34:04;;;;;;;6.82;3.95;;;;;;;6.88;82.09;102243.22;5015588;28;20034;-45
2021/05/29 01:36:30;;;;;;;5.15;3.95;;;;;;;6.91;82.46;102251.66;5020207;28;20160;-45
2021/05/29 01:38:56;;;;;;;9.35;4.47;;;;;;;6.91;83.02;102249.00;5016845;28;20496;-46
2021/05/29 01:41:23;;;;;;;6.38;4.57;;;;;;;6.96;82.98;102241.25;5028252;28;20357;-46
2021/05/29 01:43:50;;;;;;;6.85;4.60;;;;;;;7.00;83.38;102243.56;5015870;28;20033;-46
2021/05/29 01:46:18;;;;;;;6.68;3.85;;;;;;;7.07;82.92;102244.47;5014935;28;20029;-46
2021/05/29 01:48:45;;;;;;;6.82;4.30;;;;;;;7.09;82.67;102237.94;5016733;28;20029;-45
2021/05/29 01:51:17;;;;;;;7.10;4.15;;;;;;;7.10;83.71;102244.09;5016222;28;20152;-46
2021/05/29 01:53:44;;;;;;;6.82;4.10;;;;;;;7.15;83.33;102244.34;5018109;28;22109;-45
2021/05/29 01:56:10;;;;;;;8.40;4.70;;;;;;;7.11;84.49;102248.41;5018714;28;20261;-46
2021/05/29 01:58:38;;;;;;;7.63;3.90;;;;;;;7.30;83.40;102238.97;5019605;28;20036;-46
2021/05/29 02:01:05;;;;;;;5.13;3.80;;;;;;;7.26;84.09;102247.34;5011421;28;20040;-47
2021/05/29 02:03:31;;;;;;;5.95;3.85;;;;;;;7.29;83.46;102248.81;5019025;28;20029;-45
2021/05/29 02:05:56;;;;;;;6.78;4.22;;;;;;;7.27;84.37;102253.50;5016852;28;20033;-45
2021/05/29 02:08:22;;;;;;;5.90;3.83;;;;;;;7.32;84.60;102245.75;5016384;28;20036;-46
2021/05/29 02:10:48;;;;;;;6.75;4.10;;;;;;;7.40;84.07;102240.31;5012580;28;20056;-46
2021/05/29 02:13:41;;;;;;;6.68;4.32;;;;;;;7.51;84.99;102236.28;5017253;28;20030;-46
2021/05/29 02:16:11;;;;;;;6.63;4.07;;;;;;;7.64;84.76;102227.59;5011507;28;20037;-45
2021/05/29 02:18:38;;;;;;;5.07;3.88;;;;;;;7.74;84.69;102234.25;5017312;28;20067;-46
2021/05/29 02:21:10;;;;;;;7.13;4.57;;;;;;;7.81;84.91;102220.94;5013745;28;20509;-46
2021/05/29 02:23:45;;;;;;;7.15;3.75;;;;;;;7.87;84.23;102221.00;5019093;28;20495;-45
2021/05/29 02:26:13;;;;;;;6.40;4.32;;;;;;;7.91;84.47;102231.31;5012734;28;20039;-46
2021/05/29 02:28:41;;;;;;;6.32;4.50;;;;;;;7.92;84.60;102233.78;5012593;28;20337;-47
2021/05/29 02:31:08;;;;;;;7.30;4.68;;;;;;;7.93;85.32;102229.25;5019479;28;20048;-46
2021/05/29 02:33:35;;;;;;;6.68;4.50;;;;;;;7.99;84.22;102237.31;5016633;28;20047;-46
2021/05/29 02:36:02;;;;;;;8.98;4.50;;;;;;;8.04;84.42;102236.72;5015767;28;20110;-47
2021/05/29 02:38:28;;;;;;;9.90;4.95;;;;;;;8.08;84.50;102233.50;5012498;28;20116;-46
2021/05/29 02:40:55;;;;;;;9.40;5.03;;;;;;;8.15;84.36;102239.69;5013429;28;20258;-46
2021/05/29 02:43:20;;;;;;;8.18;4.85;;;;;;;8.17;85.52;102240.31;5015085;28;20034;-46
2021/05/29 02:45:46;;;;;;;12.35;5.10;;;;;;;8.24;84.75;102237.66;5014876;28;20036;-45
2021/05/29 02:48:14;;;;;;;7.07;5.03;;;;;;;8.26;84.92;102245.47;5017101;28;20213;-46
2021/05/29 02:50:41;;;;;;;10.93;5.35;;;;;;;8.29;85.40;102245.94;5011502;28;20034;-46
2021/05/29 02:53:08;;;;;;;9.23;5.47;;;;;;;8.31;86.06;102251.09;5018047;28;20029;-45
2021/05/29 02:55:34;;;;;;;9.40;5.60;;;;;;;8.36;85.33;102246.00;5016254;28;20455;-46
2021/05/29 02:58:00;;;;;;;11.95;5.55;;;;;;;8.40;84.69;102247.25;5020902;28;20032;-46
2021/05/29 03:00:51;;;;;;;11.25;5.68;;;;;;;8.43;83.88;102246.84;5015248;28;20059;-47
2021/05/29 03:03:17;;;;;;;12.77;6.18;;;;;;;8.41;85.29;102246.22;5016803;28;20238;-45
2021/05/29 03:05:47;;;;;;;13.13;6.32;;;;;;;8.46;85.08;102241.13;5013957;28;20554;-46
2021/05/29 03:08:14;;;;;;;11.73;5.68;;;;;;;8.49;84.52;102243.41;5017432;28;20018;-47
2021/05/29 03:10:41;;;;;;;12.90;6.68;;;;;;;8.48;84.10;102245.25;5012539;28;20383;-45
2021/05/29 03:13:08;;;;;;;12.38;6.47;;;;;;;8.48;83.98;102249.78;5017842;28;20025;-46
2021/05/29 03:15:34;;;;;;;12.85;7.65;;;;;;;8.43;84.84;102257.53;5016270;28;20180;-46
2021/05/29 03:18:00;;;;;;;15.93;7.05;;;;;;;8.46;84.31;102258.00;5010073;28;20786;-46
2021/05/29 03:20:29;;;;;;;17.85;7.55;;;;;;;8.42;85.84;102255.88;5012955;28;20021;-46
2021/05/29 03:22:55;;;;;;;15.10;6.07;;;;;;;8.43;85.10;102263.69;5010395;28;20138;-46
2021/05/29 03:25:21;;;;;;;11.80;7.15;;;;;;;8.46;84.61;102257.16;5018991;28;20435;-46
2021/05/29 03:27:49;;;;;;;18.48;8.60;;;;;;;8.42;87.39;102254.03;5015162;28;20521;-46
2021/05/29 03:30:18;;;;;;;19.83;9.25;;;;;;;8.42;87.74;102255.88;5016599;28;20513;-46
2021/05/29 03:32:43;;;;;;;19.25;8.88;;;;;;;8.41;87.41;102255.06;5011261;28;20163;-46
2021/05/29 03:35:10;;;;;;;18.85;8.45;;;;;;;8.35;89.39;102252.34;5013155;28;20104;-45
2021/05/29 03:37:36;;;;;;;19.92;9.60;;;;;;;8.40;87.37;102257.94;5014617;28;20028;-45
2021/05/29 03:40:03;;;;;;;19.38;9.00;;;;;;;8.43;86.83;102265.53;5019047;28;20038;-46
2021/05/29 03:42:29;;;;;;;21.23;8.50;;;;;;;8.47;86.36;102266.81;5011106;28;20029;-46
2021/05/29 03:44:55;;;;;;;19.63;8.80;;;;;;;8.44;87.78;102270.72;5015760;28;20032;-45
2021/05/29 03:47:20;;;;;;;27.45;11.45;;;;;;;8.47;88.97;102274.84;5018610;28;20036;-45
2021/05/29 03:49:46;;;;;;;22.40;10.77;;;;;;;8.59;87.87;102267.06;5013369;28;20126;-45
2021/05/29 03:52:11;;;;;;;23.52;11.27;;;;;;;8.66;89.03;102260.75;5007071;28;20093;-45
2021/05/29 03:54:37;;;;;;;20.83;10.55;;;;;;;8.81;87.61;102274.00;5016887;28;20029;-45
2021/05/29 03:57:03;;;;;;;21.92;10.60;;;;;;;8.95;86.45;102272.16;5015068;28;20030;-46
2021/05/29 03:59:28;;;;;;;24.02;11.52;;;;;;;9.05;86.44;102268.09;5016948;28;20056;-46
2021/05/29 04:01:54;;;;;;;23.13;12.05;;;;;;;9.15;86.49;102273.06;5016241;28;20120;-46
2021/05/29 04:04:19;;;;;;;25.33;11.98;;;;;;;9.23;86.91;102274.75;5013338;28;20037;-46
2021/05/29 04:06:45;;;;;;;28.67;12.43;;;;;;;9.24;87.41;102271.03;5017445;28;20056;-46
2021/05/29 04:09:11;;;;;;;33.70;13.95;;;;;;;9.28;88.45;102272.28;5016040;28;20030;-45
2021/05/29 04:11:37;;;;;;;30.63;13.07;;;;;;;9.23;89.50;102270.22;5013990;28;20026;-45
2021/05/29 04:14:04;;;;;;;29.65;13.45;;;;;;;9.23;89.78;102274.75;5018190;28;20510;-45
2021/05/29 04:16:30;;;;;;;28.52;13.52;;;;;;;9.35;88.80;102275.81;5013968;28;20034;-45
2021/05/29 04:18:56;;;;;;;27.48;11.85;;;;;;;9.31;89.65;102270.00;5018111;28;20121;-45
2021/05/29 04:21:21;;;;;;;27.75;12.65;;;;;;;9.42;89.05;102275.81;5014502;28;20109;-45
2021/05/29 04:23:47;;;;;;;27.02;12.13;;;;;;;9.56;87.79;102282.84;5019964;28;20437;-45
2021/05/29 04:26:13;;;;;;;24.75;11.70;;;;;;;9.69;86.44;102275.66;5014529;28;20466;-46
2021/05/29 04:28:39;;;;;;;25.40;11.70;;;;;;;9.73;86.91;102280.59;5018999;28;20108;-46
2021/05/29 04:31:05;;;;;;;24.70;12.25;;;;;;;9.78;86.89;102284.28;5010840;28;20654;-45
2021/05/29 04:33:31;;;;;;;25.48;12.13;;;;;;;9.83;86.54;102276.47;5013944;28;20034;-46
2021/05/29 04:35:57;;;;;;;22.05;11.80;;;;;;;9.91;85.88;102292.34;5018942;28;20033;-46
2021/05/29 04:38:24;;;;;;;23.50;12.30;;;;;;;10.02;85.41;102290.06;5016873;28;20526;-46
2021/05/29 04:40:49;;;;;;;25.48;12.55;;;;;;;10.03;85.76;102297.06;5016963;28;20117;-45
2021/05/29 04:43:15;;;;;;;22.38;12.25;;;;;;;10.04;86.24;102290.66;5013374;28;20367;-46
2021/05/29 04:45:41;;;;;;;23.40;12.48;;;;;;;10.14;85.16;102288.41;5019458;28;20577;-45
2021/05/29 04:48:08;;;;;;;23.80;12.18;;;;;;;10.06;86.31;102291.31;5017919;28;20030;-46
2021/05/29 04:53:19;;;;;;;22.25;11.20;;;;;;;10.14;86.07;102286.56;5021724;28;20033;-46
2021/05/29 04:55:45;;;;;;;25.25;11.48;;;;;;;10.02;87.06;102288.19;5015220;28;20033;-45
2021/05/29 04:58:10;;;;;;;23.70;10.82;;;;;;;10.14;86.40;102291.09;5022661;28;20116;-47
2021/05/29 05:00:36;;;;;;;21.48;11.55;;;;;;;10.28;85.17;102277.50;5016650;28;20044;-45
2021/05/29 05:03:01;;;;;;;24.75;11.48;;;;;;;10.37;84.79;102306.75;5016348;28;20303;-45
2021/05/29 05:05:27;;;;;;;19.90;10.45;;;;;;;10.47;84.13;102294.56;5017850;28;20034;-46
2021/05/29 05:07:52;;;;;;;22.20;11.20;;;;;;;10.55;83.72;102297.00;5016191;28;20426;-46
2021/05/29 05:10:18;;;;;;;23.10;11.88;;;;;;;10.64;83.20;102299.50;5012913;28;20040;-46
2021/05/29 05:12:43;;;;;;;18.13;10.63;;;;;;;10.68;83.04;102309.56;5014130;28;20022;-46
2021/05/29 05:15:10;;;;;;;24.02;11.30;;;;;;;10.66;83.35;102305.47;4998543;28;20515;-47
2021/05/29 05:17:35;;;;;;;22.63;11.60;;;;;;;10.71;83.37;102300.28;5014922;28;20032;-46
2021/05/29 05:20:01;;;;;;;22.65;10.98;;;;;;;10.78;82.83;102303.78;5017854;28;20026;-46
2021/05/29 05:22:26;;;;;;;23.08;11.43;;;;;;;10.79;82.77;102303.56;5016375;28;20395;-46
2021/05/29 05:24:52;;;;;;;21.63;10.45;;;;;;;10.92;81.78;102304.53;5015017;28;20036;-46
2021/05/29 05:27:17;;;;;;;16.67;10.07;;;;;;;10.99;81.44;102308.03;5017582;28;20251;-47
2021/05/29 05:29:42;;;;;;;23.30;11.50;;;;;;;11.11;80.74;102304.44;5014936;28;20018;-46
2021/05/29 05:32:08;;;;;;;25.00;11.25;;;;;;;11.05;81.01;102307.16;5014671;28;20108;-47
2021/05/29 05:34:33;;;;;;;22.05;10.32;;;;;;;11.12;80.98;102310.63;5015008;28;20053;-46
2021/05/29 05:36:59;;;;;;;21.77;10.45;;;;;;;11.07;81.27;102305.09;5015473;28;20036;-46
2021/05/29 05:39:24;;;;;;;20.63;10.65;;;;;;;11.14;80.89;102313.94;5011838;28;20032;-46
2021/05/29 05:41:50;;;;;;;19.25;9.82;;;;;;;11.05;81.38;102313.34;5014833;28;20487;-47
2021/05/29 05:44:15;;;;;;;20.02;10.05;;;;;;;11.12;80.70;102322.19;5013977;28;20025;-46
2021/05/29 05:46:41;;;;;;;19.50;10.18;;;;;;;11.01;81.09;102314.00;5011750;28;20022;-46
2021/05/29 05:49:06;;;;;;;20.77;10.38;;;;;;;11.11;81.21;102317.84;5000596;28;20029;-46
2021/05/29 05:51:33;;;;;;;19.27;9.32;;;;;;;11.34;79.96;102327.28;5011918;28;20405;-46
2021/05/29 05:53:59;;;;;;;17.48;9.70;;;;;;;11.44;79.49;102324.91;5016501;28;20482;-46
2021/05/29 05:56:27;;;;;;;20.23;9.93;;;;;;;11.37;80.06;102326.84;5017083;28;20025;-46
2021/05/29 05:58:55;;;;;;;20.60;10.00;;;;;;;11.35;79.88;102323.53;5012346;28;20476;-46
2021/05/29 06:01:21;;;;;;;21.05;9.45;;;;;;;11.37;80.09;102322.28;5019223;28;20064;-46
2021/05/29 06:03:48;;;;;;;20.00;9.25;;;;;;;11.44;79.66;102325.75;5018483;28;20128;-46
2021/05/29 06:06:14;;;;;;;19.52;9.80;;;;;;;11.42;79.55;102327.00;5008391;28;20692;-47
2021/05/29 06:08:39;;;;;;;17.67;9.73;;;;;;;11.50;79.02;102322.22;5020703;28;20033;-46
2021/05/29 06:11:05;;;;;;;17.75;8.95;;;;;;;11.39;79.25;102328.25;5009839;28;20034;-47
2021/05/29 06:19:08;;;;;;;18.42;9.13;;;;;;;11.49;79.05;102334.00;5009671;28;20044;-46
2021/05/29 06:21:34;;;;;;;20.23;9.30;;;;;;;11.33;80.04;102333.69;5010594;28;20021;-46
2021/05/29 06:24:00;;;;;;;20.15;8.88;;;;;;;11.40;79.68;102337.13;5014996;28;20455;-46
2021/05/29 06:26:26;;;;;;;16.77;9.27;;;;;;;11.37;79.74;102337.56;5011770;28;20032;-46
2021/05/29 06:28:51;;;;;;;16.05;8.25;;;;;;;11.59;78.77;102335.38;5017264;28;20367;-46
2021/05/29 06:31:17;;;;;;;18.17;8.30;;;;;;;11.74;78.21;102339.41;5013742;28;20395;-46
2021/05/29 06:33:42;;;;;;;18.20;9.52;;;;;;;11.55;79.11;102340.34;5009367;28;20550;-47
2021/05/29 06:36:08;;;;;;;13.65;8.13;;;;;;;11.68;78.37;102344.81;5013706;28;20095;-46
2021/05/29 06:38:36;;;;;;;13.88;8.25;;;;;;;11.83;77.62;102349.91;5002611;28;20040;-47
2021/05/29 06:41:03;;;;;;;18.35;9.55;;;;;;;11.57;78.78;102345.50;5003181;28;20029;-47
2021/05/29 06:43:29;;;;;;;15.95;8.93;;;;;;;11.70;78.25;102338.19;5016573;28;20153;-47
2021/05/29 06:45:55;;;;;;;14.13;7.97;;;;;;;11.90;77.77;102338.09;5015284;28;20049;-47
2021/05/29 06:48:21;;;;;;;14.23;7.68;;;;;;;12.05;77.17;102338.59;4992698;28;20175;-49
2021/05/29 06:50:53;;;;;;;19.95;8.75;;;;;;;12.40;76.07;102338.91;5013867;28;20132;-47
2021/05/29 06:53:25;;;;;;;17.05;8.48;;;;;;;12.54;75.37;102338.75;5014355;28;20069;-46
2021/05/29 06:58:51;;;;;;;13.98;7.40;;;;;;;12.32;74.94;102341.03;5012729;28;20072;-47
2021/05/29 07:01:19;;;;;;;14.68;7.95;;;;;;;12.29;75.71;102336.94;5015458;28;20029;-47
2021/05/29 07:03:46;;;;;;;13.10;7.82;;;;;;;11.90;76.80;102338.09;5014797;28;20040;-47
2021/05/29 07:06:12;;;;;;;17.90;8.05;;;;;;;12.19;75.89;102333.09;5008517;28;20034;-48
2021/05/29 07:08:37;;;;;;;14.20;7.78;;;;;;;12.37;75.15;102339.31;5011039;28;20026;-49
2021/05/29 07:11:03;;;;;;;13.10;6.93;;;;;;;12.69;74.12;102339.22;5007946;28;20108;-46
2021/05/29 07:13:29;;;;;;;19.02;8.75;;;;;;;13.00;73.47;102343.66;4995541;28;20091;-48
2021/05/29 07:15:54;;;;;;;13.57;7.43;;;;;;;13.25;72.11;102336.31;5010264;28;20285;-47
2021/05/29 07:18:23;;;;;;;14.35;7.63;;;;;;;13.42;71.46;102335.69;5013670;28;20052;-47
2021/05/29 07:20:48;;;;;;;12.85;7.63;;;;;;;12.94;72.29;102329.22;4992319;28;20033;-47
2021/05/29 07:23:14;;;;;;;21.00;7.93;;;;;;;12.87;72.35;102341.09;5010607;28;20379;-47
2021/05/29 07:25:42;;;;;;;14.27;8.00;;;;;;;13.10;72.19;102348.47;5014010;28;20704;-46
2021/05/29 07:28:09;;;;;;;13.80;8.15;;;;;;;13.20;71.74;102348.81;5014511;28;20057;-46
2021/05/29 07:30:35;;;;;;;16.35;7.95;;;;;;;13.54;70.50;102350.84;5015668;28;20399;-47
2021/05/29 07:33:00;;;;;;;12.27;6.88;;;;;;;13.74;69.57;102347.03;4999133;28;20029;-47
2021/05/29 07:35:29;;;;;;;16.38;7.63;;;;;;;13.71;69.42;102348.31;5013605;28;20087;-47
2021/05/29 07:37:55;;;;;;;11.70;7.10;;;;;;;13.63;69.54;102345.94;5008929;28;20033;-46
2021/05/29 07:40:21;;;;;;;13.77;7.07;;;;;;;13.40;69.54;102353.94;5009380;28;20069;-46
2021/05/29 07:42:46;;;;;;;13.98;7.70;;;;;;;13.30;70.22;102349.09;5010454;28;20490;-47
2021/05/29 07:45:13;;;;;;;17.02;7.82;;;;;;;13.08;71.14;102342.50;5006246;28;20120;-49
2021/05/29 07:47:39;;;;;;;12.38;7.13;;;;;;;13.23;70.83;102343.78;5010211;28;20040;-46
2021/05/29 07:50:06;;;;;;;17.15;7.20;;;;;;;13.41;70.36;102347.50;5010111;28;20022;-46
2021/05/29 07:52:32;;;;;;;13.10;7.68;;;;;;;13.83;68.97;102346.50;5007829;28;20092;-48
2021/05/29 07:54:57;;;;;;;15.35;7.38;;;;;;;13.98;68.19;102348.72;5013142;28;20483;-47
2021/05/29 07:57:23;;;;;;;12.25;6.90;;;;;;;13.98;68.02;102337.13;5008497;28;20304;-46
2021/05/29 07:59:48;;;;;;;15.38;7.57;;;;;;;14.45;66.89;102330.75;5007095;28;20123;-46
2021/05/29 08:02:14;;;;;;;16.98;7.35;;;;;;;14.46;65.63;102340.47;5008001;28;20034;-47
2021/05/29 08:04:40;;;;;;;10.88;6.80;;;;;;;14.42;65.07;102336.59;4994279;28;20442;-47
2021/05/29 08:07:06;;;;;;;12.48;7.28;;;;;;;14.90;64.24;102331.97;5007478;28;20310;-46
2021/05/29 08:09:31;;;;;;;14.77;7.00;;;;;;;14.96;63.84;102342.63;5007727;28;20033;-47
2021/05/29 08:11:57;;;;;;;9.68;6.30;;;;;;;15.32;63.07;102332.56;5006251;28;20030;-47
2021/05/29 08:14:22;;;;;;;11.23;6.05;;;;;;;15.11;62.71;102329.47;5009170;28;21062;-48
2021/05/29 08:16:48;;;;;;;10.48;6.80;;;;;;;15.31;62.54;102334.44;5011495;28;20030;-49
2021/05/29 08:19:14;;;;;;;15.70;6.00;;;;;;;15.60;60.96;102337.94;5009534;28;20030;-47
2021/05/29 08:21:46;;;;;;;10.27;6.55;;;;;;;16.24;58.84;102335.78;4998355;28;20108;-47
2021/05/29 08:24:12;;;;;;;15.55;6.78;;;;;;;15.66;60.61;102336.19;5013118;28;20502;-47
2021/05/29 08:26:39;;;;;;;10.13;5.72;;;;;;;15.10;61.39;102335.91;5010586;28;20040;-47
2021/05/29 08:29:06;;;;;;;11.75;6.25;;;;;;;14.82;62.71;102346.66;5012818;28;20541;-47
2021/05/29 08:31:36;;;;;;;11.52;6.40;;;;;;;15.41;61.14;102340.00;5118026;22;20037;-78
2021/05/29 08:34:03;;;;;;;11.10;5.95;;;;;;;15.71;59.87;102333.56;5010453;28;20081;-77
2021/05/29 08:36:28;;;;;;;12.05;6.28;;;;;;;15.54;60.05;102344.31;5009220;28;20404;-78
2021/05/29 08:38:54;;;;;;;12.02;6.60;;;;;;;15.65;59.69;102335.38;5010158;28;20021;-79
2021/05/29 08:41:20;;;;;;;11.20;5.88;;;;;;;16.10;59.02;102337.19;5010235;28;20032;-78
2021/05/29 08:43:46;;;;;;;15.93;6.07;;;;;;;16.04;59.45;102337.34;5022941;28;20104;-77
2021/05/29 08:46:12;;;;;;;12.82;6.13;;;;;;;16.18;58.84;102344.91;5009102;28;20061;-77
2021/05/29 08:48:39;;;;;;;12.07;6.43;;;;;;;16.08;58.51;102343.91;5007449;28;20040;-77
2021/05/29 08:51:16;;;;;;;9.00;5.95;;;;;;;16.19;58.66;102341.13;5010113;28;20025;-77
2021/05/29 08:53:53;;;;;;;8.27;5.80;;;;;;;16.10;56.95;102330.97;5011655;28;20044;-78
2021/05/29 08:56:23;;;;;;;11.38;6.15;;;;;;;16.46;57.38;102335.84;5020342;28;20037;-78
2021/05/29 08:58:49;;;;;;;13.32;5.70;;;;;;;16.84;56.26;102334.22;5021155;28;20486;-77
2021/05/29 09:01:16;;;;;;;12.57;5.75;;;;;;;16.60;56.78;102333.59;5007308;28;20847;-77
2021/05/29 09:03:54;;;;;;;11.80;6.32;;;;;;;16.66;57.29;102338.00;5022532;28;20037;-80
2021/05/29 09:06:26;;;;;;;10.35;6.15;;;;;;;17.10;56.45;102330.75;5023913;28;20119;-77
2021/05/29 09:08:56;;;;;;;12.15;6.30;;;;;;;17.06;54.74;102326.94;5025685;28;20029;-78
2021/05/29 09:11:49;;;;;;;11.35;6.85;;;;;;;17.80;54.01;102329.88;5003624;28;20156;-77
2021/05/29 09:14:33;;;;;;;8.02;5.80;;;;;;;18.05;52.80;102323.81;5018379;28;20038;-79
2021/05/29 09:17:06;;;;;;;12.15;7.03;;;;;;;17.23;53.54;102332.22;5011513;28;20026;-79
2021/05/29 09:20:10;;;;;;;9.20;5.18;;;;;;;17.52;54.90;102321.97;5020756;28;20390;-77
2021/05/29 09:22:38;;;;;;;9.75;6.30;;;;;;;17.18;53.42;102329.47;5008089;28;20055;-79
2021/05/29 09:25:13;;;;;;;13.63;6.45;;;;;;;17.02;54.97;102323.06;5016471;28;20030;-79
2021/05/29 09:27:49;;;;;;;;;;;;;;;16.73;54.62;102324.34;5022172;28;20029;-79
2021/05/29 09:30:15;;;;;;;10.20;5.82;;;;;;;17.56;52.41;102333.94;5027331;28;19921;-77
2021/05/29 09:32:41;;;;;;;9.15;5.35;;;;;;;17.33;53.02;102332.34;5014141;28;20029;-78
2021/05/29 09:35:09;;;;;;;9.63;5.75;;;;;;;17.36;53.44;102333.72;5029083;28;20506;-78
2021/05/29 09:37:36;;;;;;;12.80;5.72;;;;;;;17.26;52.93;102337.16;5012671;28;20049;-78
2021/05/29 09:40:08;;;;;;;9.15;6.72;;;;;;;16.63;53.98;102338.50;5012083;28;20037;-77
2021/05/29 09:42:40;;;;;;;11.88;5.25;;;;;;;16.63;53.20;102339.31;5006906;28;20021;-78
2021/05/29 09:45:22;;;;;;;9.63;5.60;;;;;;;17.42;52.00;102332.72;5015244;28;20618;-78
2021/05/29 09:48:09;;;;;;;6.85;4.97;;;;;;;17.90;50.50;102342.69;5006220;28;20048;-77
2021/05/29 09:50:35;;;;;;;9.07;5.18;;;;;;;18.34;49.02;102337.06;5021545;28;20364;-78
2021/05/29 09:53:00;;;;;;;11.07;5.53;;;;;;;17.84;48.70;102348.34;5015896;28;20040;-78
2021/05/29 09:55:52;;;;;;;8.82;5.18;;;;;;;16.69;52.85;102347.53;5010623;28;20029;-78
2021/05/29 09:58:18;;;;;;;8.65;5.35;;;;;;;16.46;53.72;102345.84;5016777;28;20034;-78
2021/05/29 10:00:48;;;;;;;9.30;5.90;;;;;;;16.95;51.75;102348.69;5027544;28;20025;-79
2021/05/29 10:03:15;;;;;;;15.50;5.45;;;;;;;17.51;51.71;102355.56;5023030;28;20111;-78
2021/05/29 10:05:48;;;;;;;13.60;6.07;;;;;;;17.29;52.16;102347.50;5010168;28;20029;-77
2021/05/29 10:08:17;;;;;;;13.63;6.13;;;;;;;16.88;52.89;102351.59;5005085;28;20026;-76
2021/05/29 10:10:42;;;;;;;9.90;5.05;;;;;;;16.58;52.63;102355.50;5019549;28;20030;-78
2021/05/29 10:13:09;;;;;;;7.38;4.93;;;;;;;17.03;52.48;102354.47;5022576;28;20080;-77
2021/05/29 10:15:34;;;;;;;8.40;4.82;;;;;;;17.44;51.88;102349.56;5030400;28;20060;-77
2021/05/29 10:18:03;;;;;;;8.45;4.80;;;;;;;17.15;51.74;102348.94;5020727;28;20025;-77
2021/05/29 10:20:31;;;;;;;10.20;4.75;;;;;;;16.85;52.00;102365.63;5011400;28;20036;-79
2021/05/29 10:22:58;;;;;;;9.70;6.10;;;;;;;16.90;52.65;102352.19;5011848;28;20021;-76
2021/05/29 10:25:23;;;;;;;8.70;5.13;;;;;;;17.18;52.18;102348.44;5001040;28;20596;-77
2021/05/29 10:27:52;;;;;;;14.02;5.40;;;;;;;16.95;52.01;102346.81;5021809;28;20021;-78
2021/05/29 10:30:23;;;;;;;8.85;5.43;;;;;;;17.04;52.22;102344.47;5005305;28;20029;-77
2021/05/29 10:33:09;;;;;;;11.68;5.53;;;;;;;17.30;52.26;102353.72;5004390;28;20049;-77
2021/05/29 10:35:35;;;;;;;11.88;5.72;;;;;;;17.49;52.21;102345.00;5021695;28;20029;-78
2021/05/29 10:38:01;;;;;;;7.32;5.13;;;;;;;17.25;51.81;102337.44;5021666;28;20145;-76
2021/05/29 10:40:28;;;;;;;8.90;5.10;;;;;;;17.27;51.65;102340.69;5007191;28;20479;-77
2021/05/29 10:43:03;;;;;;;8.40;5.47;;;;;;;16.83;52.32;102349.63;5023333;28;20113;-79
2021/05/29 10:45:29;;;;;;;;;;;;;;;16.91;51.93;102335.69;5025541;28;20029;-78
2021/05/29 10:48:14;;;;;;;13.73;7.70;;;;;;;17.22;51.80;102344.97;5016906;28;19963;-78
2021/05/29 10:53:47;;;;;;;12.25;8.23;;;;;;;17.26;50.91;102336.34;5019075;28;20049;-76
2021/05/29 10:56:18;;;;;;;9.57;6.88;;;;;;;17.42;50.46;102338.16;5017575;28;20037;-78
2021/05/29 10:59:02;;;;;;;8.77;4.93;;;;;;;17.61;49.76;102331.31;5000237;28;20037;-76
2021/05/29 11:01:47;;;;;;;9.80;5.23;;;;;;;17.42;50.62;102338.97;4991980;28;20119;-76
2021/05/29 11:04:16;;;;;;;11.63;5.60;;;;;;;17.68;49.83;102331.94;5014755;28;20049;-75
2021/05/29 11:06:52;;;;;;;9.20;4.88;;;;;;;17.47;50.38;102325.47;5013456;28;20037;-77
2021/05/29 11:09:52;;;;;;;11.75;4.53;;;;;;;17.83;49.46;102333.16;5014068;28;20103;-78
2021/05/29 11:12:18;;;;;;;10.75;4.80;;;;;;;19.13;46.70;102319.81;5014437;28;20025;-76
2021/05/29 11:14:52;;;;;;;7.40;4.65;;;;;;;19.17;45.96;102326.34;5002782;28;20515;-76
2021/05/29 11:17:20;;;;;;;8.73;5.10;;;;;;;19.56;45.48;102324.00;5010458;28;20050;-76
2021/05/29 11:20:20;;;;;;;9.70;4.57;;;;;;;19.17;45.56;102340.75;5012129;28;20033;-76
2021/05/29 11:22:49;;;;;;;7.93;4.95;;;;;;;19.49;45.14;102329.69;5000549;28;20030;-76
2021/05/29 11:25:19;;;;;;;12.75;5.13;;;;;;;18.29;45.97;102343.25;5016255;28;20733;-77
2021/05/29 11:27:47;;;;;;;7.32;4.88;;;;;;;18.05;47.30;102337.38;5021690;28;20057;-77
2021/05/29 11:30:18;;;;;;;8.10;4.82;;;;;;;18.94;48.06;102343.91;5015663;28;20075;-76
2021/05/29 11:35:36;;;;;;;7.57;4.38;;;;;;;19.55;45.42;102322.38;5011347;28;20042;-77
2021/05/29 11:38:21;;;;;;;9.63;4.78;;;;;;;19.72;44.91;102330.28;5019198;28;20029;-76
2021/05/29 11:40:55;;;;;;;;;;;;;;;19.74;44.38;102331.63;5014538;28;20137;-77
2021/05/29 11:43:31;;;;;;;9.52;4.47;;;;;;;19.67;45.80;102324.84;4998436;28;20307;-76